Time;durP1;ratioP1;P1;durP2;ratioP2;P2;SDS_P1;SDS_P2;PMS_P1;PMS_P2;Temp;Humidity;BMP_temperature;BMP_pressure;BME280_temperature;BME280_humidity;BME280_pressure;Samples;Min_cycle;Max_cycle;Signal;HPM_P1;HPM_P2
2023/12/10 00:00:47;;;;;;;8.40;2.97;;;;;;;;;;4843390;29;20490;-80
2023/12/10 00:03:19;;;;;;;4.50;2.80;;;;;;;;;;4843435;29;20442;-83
2023/12/10 00:05:49;;;;;;;7.57;2.70;;;;;;;;;;4843696;29;20046;-81
2023/12/10 00:08:35;;;;;;;6.05;3.45;;;;;;;;;;4844988;29;20038;-83
2023/12/10 00:11:05;;;;;;;9.57;3.60;;;;;;;;;;4858532;29;20053;-83
2023/12/10 00:13:35;;;;;;;8.15;3.53;;;;;;;;;;4843598;29;20062;-80
2023/12/10 00:16:05;;;;;;;3.78;2.42;;;;;;;;;;4844885;29;20050;-82
2023/12/10 00:18:36;;;;;;;6.47;2.72;;;;;;;;;;4844239;29;20058;-81
2023/12/10 00:21:06;;;;;;;6.00;2.47;;;;;;;;;;4843757;29;20057;-81
2023/12/10 00:23:39;;;;;;;7.05;2.50;;;;;;;;;;4841243;29;20062;-81
2023/12/10 00:26:09;;;;;;;6.78;2.40;;;;;;;;;;4843588;29;20049;-83
2023/12/10 00:28:39;;;;;;;5.72;2.53;;;;;;;;;;4842421;29;20069;-83
2023/12/10 00:31:10;;;;;;;5.30;2.25;;;;;;;;;;4843505;29;20134;-81
2023/12/10 00:33:40;;;;;;;6.05;2.63;;;;;;;;;;4842207;29;20054;-80
2023/12/10 00:36:11;;;;;;;6.47;2.65;;;;;;;;;;4843079;29;20469;-80
2023/12/10 00:38:42;;;;;;;4.32;2.47;;;;;;;;;;4843342;29;20046;-81
2023/12/10 00:41:12;;;;;;;5.93;3.90;;;;;;;;;;4843906;29;20050;-84
2023/12/10 00:43:43;;;;;;;4.45;2.42;;;;;;;;;;4843172;29;20057;-81
2023/12/10 00:46:13;;;;;;;4.68;2.90;;;;;;;;;;4843511;29;20046;-82
2023/12/10 00:48:44;;;;;;;5.18;2.88;;;;;;;;;;4843252;29;20049;-81
2023/12/10 00:51:21;;;;;;;5.22;3.05;;;;;;;;;;4843494;29;20046;-80
2023/12/10 00:53:52;;;;;;;7.18;3.30;;;;;;;;;;4843239;29;20050;-80
2023/12/10 00:56:23;;;;;;;5.13;2.92;;;;;;;;;;4842228;29;20058;-82
2023/12/10 00:58:54;;;;;;;5.05;3.00;;;;;;;;;;4843101;29;20409;-85
2023/12/10 01:01:24;;;;;;;5.63;2.95;;;;;;;;;;4842248;29;20397;-85
2023/12/10 01:03:55;;;;;;;7.28;3.00;;;;;;;;;;4843187;29;20406;-81
2023/12/10 01:06:26;;;;;;;5.25;3.55;;;;;;;;;;4843399;29;20056;-81
2023/12/10 01:08:56;;;;;;;8.00;3.85;;;;;;;;;;4842613;29;20438;-82
2023/12/10 01:11:26;;;;;;;7.93;3.85;;;;;;;;;;4841809;29;20058;-82
2023/12/10 01:13:57;;;;;;;7.25;3.72;;;;;;;;;;4843196;29;20046;-81
2023/12/10 01:16:27;;;;;;;9.05;3.75;;;;;;;;;;4843470;29;20058;-82
2023/12/10 01:18:58;;;;;;;6.30;3.08;;;;;;;;;;4842896;29;20046;-81
2023/12/10 01:21:29;;;;;;;8.07;3.60;;;;;;;;;;4843065;29;20053;-86
2023/12/10 01:24:00;;;;;;;7.93;4.03;;;;;;;;;;4842442;29;20046;-84
2023/12/10 01:26:30;;;;;;;8.32;3.35;;;;;;;;;;4841848;29;20433;-83
2023/12/10 01:29:01;;;;;;;6.45;3.35;;;;;;;;;;4842695;29;20061;-85
2023/12/10 01:31:35;;;;;;;6.15;3.85;;;;;;;;;;4842796;29;20046;-81
2023/12/10 01:34:06;;;;;;;6.57;3.63;;;;;;;;;;4842973;29;20080;-84
2023/12/10 01:36:36;;;;;;;7.00;3.50;;;;;;;;;;4848437;29;20056;-80
2023/12/10 01:39:06;;;;;;;7.32;4.70;;;;;;;;;;4838202;29;20053;-80
2023/12/10 01:41:36;;;;;;;7.47;4.45;;;;;;;;;;4842666;29;20058;-80
2023/12/10 01:44:06;;;;;;;7.28;3.45;;;;;;;;;;4843295;29;20413;-81
2023/12/10 01:46:36;;;;;;;9.45;4.38;;;;;;;;;;4843368;29;20049;-81
2023/12/10 01:49:09;;;;;;;8.18;4.28;;;;;;;;;;4843220;29;20520;-80
2023/12/10 01:51:40;;;;;;;10.00;4.05;;;;;;;;;;4843349;29;20050;-81
2023/12/10 01:54:24;;;;;;;8.98;4.30;;;;;;;;;;4843795;29;20046;-84
2023/12/10 01:56:55;;;;;;;8.07;4.18;;;;;;;;;;4843312;29;20046;-82
2023/12/10 01:59:36;;;;;;;9.35;4.00;;;;;;;;;;4843518;29;20363;-80
2023/12/10 02:02:07;;;;;;;9.02;4.35;;;;;;;;;;4843620;29;20493;-82
2023/12/10 02:04:37;;;;;;;7.60;4.30;;;;;;;;;;4843166;29;20042;-81
2023/12/10 02:07:07;;;;;;;8.82;4.50;;;;;;;;;;4843173;29;20465;-80
2023/12/10 02:09:37;;;;;;;9.07;5.50;;;;;;;;;;4842965;29;20057;-83
2023/12/10 02:12:07;;;;;;;9.35;5.28;;;;;;;;;;4841333;29;20490;-82
2023/12/10 02:14:39;;;;;;;10.70;5.53;;;;;;;;;;4842837;29;20053;-83
2023/12/10 02:17:09;;;;;;;8.20;4.90;;;;;;;;;;4842881;29;20054;-83
2023/12/10 02:19:40;;;;;;;9.77;4.38;;;;;;;;;;4841935;29;20073;-81
2023/12/10 02:22:13;;;;;;;8.55;4.28;;;;;;;;;;4842439;29;20066;-82
2023/12/10 02:24:57;;;;;;;7.82;4.22;;;;;;;;;;4840874;29;20061;-81
2023/12/10 02:27:28;;;;;;;8.82;4.75;;;;;;;;;;4840988;29;20045;-80
2023/12/10 02:29:59;;;;;;;7.20;4.10;;;;;;;;;;4842829;29;20050;-83
2023/12/10 02:32:29;;;;;;;12.40;5.05;;;;;;;;;;4843123;29;20049;-81
2023/12/10 02:34:59;;;;;;;9.25;4.30;;;;;;;;;;4835756;29;20383;-81
2023/12/10 02:37:30;;;;;;;9.05;4.15;;;;;;;;;;4842680;29;20057;-83
2023/12/10 02:40:01;;;;;;;10.27;4.60;;;;;;;;;;4842657;29;20057;-82
2023/12/10 02:42:31;;;;;;;7.63;4.85;;;;;;;;;;4842220;29;20065;-81
2023/12/10 02:45:01;;;;;;;8.45;4.40;;;;;;;;;;4842023;29;20046;-81
2023/12/10 02:47:31;;;;;;;8.85;4.45;;;;;;;;;;4842953;29;20069;-81
2023/12/10 02:50:01;;;;;;;9.43;4.43;;;;;;;;;;4842166;29;20058;-80
2023/12/10 02:52:31;;;;;;;7.38;4.40;;;;;;;;;;4842571;29;20063;-83
2023/12/10 02:55:01;;;;;;;10.68;4.45;;;;;;;;;;4840940;29;20082;-81
2023/12/10 02:57:31;;;;;;;8.05;4.53;;;;;;;;;;4842429;29;20061;-81
2023/12/10 03:00:01;;;;;;;7.40;4.03;;;;;;;;;;4842255;29;20435;-82
2023/12/10 03:02:31;;;;;;;10.75;5.10;;;;;;;;;;4842244;29;20054;-82
2023/12/10 03:05:01;;;;;;;7.68;4.35;;;;;;;;;;4841913;29;20078;-81
2023/12/10 03:07:31;;;;;;;7.90;3.80;;;;;;;;;;4842114;29;20413;-82
2023/12/10 03:10:01;;;;;;;9.98;4.97;;;;;;;;;;4841102;29;20062;-82
2023/12/10 03:12:31;;;;;;;8.57;4.38;;;;;;;;;;4841907;29;20053;-84
2023/12/10 03:15:02;;;;;;;9.88;5.20;;;;;;;;;;4841261;29;20053;-81
2023/12/10 03:17:32;;;;;;;9.43;4.30;;;;;;;;;;4841954;29;20053;-82
2023/12/10 03:20:03;;;;;;;9.05;4.45;;;;;;;;;;4841864;29;20057;-81
2023/12/10 03:22:34;;;;;;;8.02;4.30;;;;;;;;;;4841990;29;20517;-82
2023/12/10 03:25:05;;;;;;;12.93;5.28;;;;;;;;;;4841887;29;20045;-81
2023/12/10 03:27:35;;;;;;;10.52;4.88;;;;;;;;;;4842352;29;20054;-82
2023/12/10 03:30:06;;;;;;;8.25;3.70;;;;;;;;;;4840422;29;20406;-81
2023/12/10 03:32:36;;;;;;;11.65;4.93;;;;;;;;;;4845201;29;20053;-81
2023/12/10 03:35:06;;;;;;;7.88;4.18;;;;;;;;;;4845249;29;20058;-82
2023/12/10 03:37:37;;;;;;;10.60;3.90;;;;;;;;;;4846169;29;20397;-82
2023/12/10 03:40:08;;;;;;;8.68;4.47;;;;;;;;;;4845954;29;20053;-81
2023/12/10 03:42:39;;;;;;;11.15;4.97;;;;;;;;;;4845677;29;20069;-81
2023/12/10 03:45:17;;;;;;;9.80;4.47;;;;;;;;;;4844341;29;20106;-81
2023/12/10 03:47:47;;;;;;;9.07;4.25;;;;;;;;;;4845469;29;20049;-80
2023/12/10 03:50:17;;;;;;;8.88;4.78;;;;;;;;;;4845464;29;20050;-80
2023/12/10 03:52:48;;;;;;;9.15;4.00;;;;;;;;;;4845471;29;20382;-81
2023/12/10 03:55:18;;;;;;;10.80;3.85;;;;;;;;;;4845324;29;20405;-83
2023/12/10 03:57:50;;;;;;;10.43;4.55;;;;;;;;;;4845382;29;20046;-81
2023/12/10 04:00:20;;;;;;;8.90;3.88;;;;;;;;;;4845827;29;20524;-81
2023/12/10 04:02:50;;;;;;;9.25;4.78;;;;;;;;;;4845083;29;20457;-79
2023/12/10 04:05:20;;;;;;;9.60;3.92;;;;;;;;;;4844956;29;20421;-81
2023/12/10 04:07:51;;;;;;;9.60;4.88;;;;;;;;;;4845467;29;20054;-81
2023/12/10 04:10:21;;;;;;;7.78;4.45;;;;;;;;;;4845113;29;20500;-80
2023/12/10 04:12:51;;;;;;;9.02;4.38;;;;;;;;;;4844929;29;20060;-79
2023/12/10 04:15:21;;;;;;;9.35;4.80;;;;;;;;;;4845061;29;20054;-81
2023/12/10 04:17:51;;;;;;;8.23;4.72;;;;;;;;;;4843128;29;20058;-79
2023/12/10 04:20:22;;;;;;;9.52;5.85;;;;;;;;;;4844806;29;20058;-80
2023/12/10 04:22:52;;;;;;;9.55;4.95;;;;;;;;;;4844889;29;20058;-81
2023/12/10 04:25:25;;;;;;;11.05;5.70;;;;;;;;;;4845140;29;20050;-80
2023/12/10 04:27:55;;;;;;;11.18;4.78;;;;;;;;;;4845296;29;20073;-80
2023/12/10 04:30:26;;;;;;;9.40;3.63;;;;;;;;;;4844953;29;20379;-81
2023/12/10 04:32:57;;;;;;;9.52;5.53;;;;;;;;;;4842870;29;20049;-80
2023/12/10 04:35:27;;;;;;;9.65;5.43;;;;;;;;;;4844624;29;20056;-81
2023/12/10 04:37:57;;;;;;;10.07;5.38;;;;;;;;;;4844488;29;20048;-81
2023/12/10 04:40:27;;;;;;;10.77;5.43;;;;;;;;;;4844835;29;20049;-81
2023/12/10 04:42:57;;;;;;;10.45;5.25;;;;;;;;;;4842432;29;20061;-83
2023/12/10 04:45:28;;;;;;;12.48;5.57;;;;;;;;;;4844484;29;20054;-81
2023/12/10 04:47:58;;;;;;;9.30;4.80;;;;;;;;;;4844143;29;20046;-80
2023/12/10 04:50:28;;;;;;;8.93;5.30;;;;;;;;;;4844858;29;20049;-79
2023/12/10 04:52:58;;;;;;;10.73;4.40;;;;;;;;;;4844570;29;20378;-79
2023/12/10 04:55:29;;;;;;;16.88;5.93;;;;;;;;;;4842550;29;20045;-81
2023/12/10 04:58:00;;;;;;;7.80;4.05;;;;;;;;;;4844184;29;20045;-79
2023/12/10 05:00:29;;;;;;;11.02;4.57;;;;;;;;;;4843930;29;20493;-81
2023/12/10 05:03:01;;;;;;;10.80;5.40;;;;;;;;;;4844414;29;20076;-81
2023/12/10 05:05:31;;;;;;;8.90;4.88;;;;;;;;;;4843814;29;20065;-79
2023/12/10 05:08:02;;;;;;;10.98;4.85;;;;;;;;;;4844223;29;20049;-81
2023/12/10 05:10:33;;;;;;;11.57;5.75;;;;;;;;;;4844206;29;20050;-79
2023/12/10 05:13:04;;;;;;;11.27;4.90;;;;;;;;;;4843728;29;20053;-81
2023/12/10 05:15:34;;;;;;;9.68;4.78;;;;;;;;;;4827222;29;20050;-82
2023/12/10 05:18:05;;;;;;;11.95;5.05;;;;;;;;;;4842075;29;20054;-81
2023/12/10 05:20:34;;;;;;;7.82;4.32;;;;;;;;;;4844421;29;20065;-82
2023/12/10 05:23:06;;;;;;;9.02;4.72;;;;;;;;;;4844072;29;20049;-80
2023/12/10 05:25:36;;;;;;;10.90;4.50;;;;;;;;;;4843336;29;20421;-80
2023/12/10 05:28:07;;;;;;;9.82;5.00;;;;;;;;;;4844610;29;20046;-81
2023/12/10 05:30:37;;;;;;;13.88;4.63;;;;;;;;;;4844113;29;20050;-81
2023/12/10 05:33:09;;;;;;;12.80;5.97;;;;;;;;;;4844090;29;20042;-81
2023/12/10 05:35:39;;;;;;;8.85;3.60;;;;;;;;;;4843489;29;20401;-81
2023/12/10 05:38:10;;;;;;;8.93;4.80;;;;;;;;;;4843290;29;20061;-81
2023/12/10 05:40:41;;;;;;;8.48;4.43;;;;;;;;;;4841757;29;20062;-80
2023/12/10 05:43:11;;;;;;;10.73;4.65;;;;;;;;;;4843413;29;20101;-81
2023/12/10 05:45:41;;;;;;;11.52;5.07;;;;;;;;;;4843388;29;20046;-81
2023/12/10 05:48:11;;;;;;;8.38;3.40;;;;;;;;;;4841549;29;20057;-79
2023/12/10 05:50:42;;;;;;;10.05;4.18;;;;;;;;;;4843134;29;20050;-79
2023/12/10 05:53:12;;;;;;;9.27;4.30;;;;;;;;;;4843633;29;20046;-79
2023/12/10 05:55:42;;;;;;;10.00;4.85;;;;;;;;;;4841855;29;20050;-81
2023/12/10 05:58:13;;;;;;;8.80;4.45;;;;;;;;;;4841453;29;20523;-78
2023/12/10 06:00:43;;;;;;;8.85;4.35;;;;;;;;;;4843332;29;20053;-80
2023/12/10 06:03:13;;;;;;;7.93;4.65;;;;;;;;;;4841719;29;20069;-81
2023/12/10 06:05:44;;;;;;;11.27;4.63;;;;;;;;;;4842842;29;20053;-79
2023/12/10 06:08:13;;;;;;;8.90;4.10;;;;;;;;;;4842932;29;20514;-79
2023/12/10 06:10:44;;;;;;;7.90;4.07;;;;;;;;;;4843250;29;20050;-83
2023/12/10 06:13:15;;;;;;;11.07;4.18;;;;;;;;;;4841669;29;20046;-82
2023/12/10 06:15:46;;;;;;;9.82;4.72;;;;;;;;;;4842678;29;20490;-83
2023/12/10 06:18:16;;;;;;;7.28;3.63;;;;;;;;;;4841933;29;20409;-81
2023/12/10 06:20:48;;;;;;;8.13;4.25;;;;;;;;;;4842972;29;20470;-82
2023/12/10 06:23:18;;;;;;;10.73;4.53;;;;;;;;;;4842910;29;20474;-81
2023/12/10 06:25:48;;;;;;;14.88;5.22;;;;;;;;;;4842405;29;20482;-81
2023/12/10 06:28:18;;;;;;;9.75;4.32;;;;;;;;;;4842063;29;20049;-81
2023/12/10 06:30:48;;;;;;;8.77;3.92;;;;;;;;;;4840924;29;20442;-81
2023/12/10 06:33:18;;;;;;;7.88;4.88;;;;;;;;;;4842681;29;20508;-81
2023/12/10 06:35:50;;;;;;;9.77;4.38;;;;;;;;;;4842606;29;20433;-80
2023/12/10 06:38:21;;;;;;;8.13;3.55;;;;;;;;;;4842388;29;20427;-80
2023/12/10 06:40:51;;;;;;;8.65;4.50;;;;;;;;;;4842629;29;20061;-81
2023/12/10 06:43:21;;;;;;;10.05;4.35;;;;;;;;;;4842028;29;20057;-80
2023/12/10 06:45:51;;;;;;;9.05;4.28;;;;;;;;;;4840628;29;20058;-80
2023/12/10 06:48:22;;;;;;;9.07;4.80;;;;;;;;;;4840847;29;20065;-81
2023/12/10 06:50:53;;;;;;;8.82;4.05;;;;;;;;;;4840816;29;20050;-82
2023/12/10 06:53:23;;;;;;;10.27;5.07;;;;;;;;;;4842458;29;20049;-80
2023/12/10 06:55:53;;;;;;;6.97;4.30;;;;;;;;;;4842637;29;20050;-80
2023/12/10 06:58:23;;;;;;;9.20;4.60;;;;;;;;;;4842569;29;20050;-80
2023/12/10 07:00:56;;;;;;;9.73;3.22;;;;;;;;;;4842221;29;20414;-80
2023/12/10 07:03:26;;;;;;;8.52;4.28;;;;;;;;;;4842098;29;20054;-81
2023/12/10 07:05:58;;;;;;;9.40;4.72;;;;;;;;;;4839490;29;20062;-82
2023/12/10 07:08:29;;;;;;;11.20;4.03;;;;;;;;;;4842752;29;20041;-82
2023/12/10 07:11:02;;;;;;;8.05;4.07;;;;;;;;;;4841259;29;20053;-82
2023/12/10 07:13:33;;;;;;;9.77;4.28;;;;;;;;;;4842292;29;20042;-80
2023/12/10 07:16:06;;;;;;;10.35;4.00;;;;;;;;;;4841273;29;20524;-80
2023/12/10 07:18:36;;;;;;;10.20;4.25;;;;;;;;;;4842344;29;20050;-80
2023/12/10 07:21:07;;;;;;;10.18;4.55;;;;;;;;;;4842445;29;20050;-81
2023/12/10 07:23:37;;;;;;;10.82;4.72;;;;;;;;;;4841047;29;20058;-81
2023/12/10 07:26:07;;;;;;;7.45;4.47;;;;;;;;;;4841959;29;20102;-82
2023/12/10 07:28:37;;;;;;;7.97;3.55;;;;;;;;;;4841872;29;20414;-81
2023/12/10 07:31:07;;;;;;;9.43;5.15;;;;;;;;;;4841747;29;20524;-84
2023/12/10 07:33:37;;;;;;;8.98;4.70;;;;;;;;;;4842045;29;20050;-83
2023/12/10 07:36:08;;;;;;;10.95;4.13;;;;;;;;;;4841946;29;20077;-82
2023/12/10 07:38:39;;;;;;;12.65;5.55;;;;;;;;;;4840089;29;20058;-82
2023/12/10 07:41:10;;;;;;;8.20;4.05;;;;;;;;;;4841633;29;20057;-80
2023/12/10 07:43:40;;;;;;;7.97;3.92;;;;;;;;;;4824983;29;20521;-80
2023/12/10 07:46:10;;;;;;;11.18;5.13;;;;;;;;;;4841599;29;20394;-81
2023/12/10 07:48:40;;;;;;;7.82;4.53;;;;;;;;;;4840751;29;20517;-81
2023/12/10 07:51:10;;;;;;;8.85;4.53;;;;;;;;;;4841696;29;20042;-81
2023/12/10 07:53:42;;;;;;;8.50;3.83;;;;;;;;;;4842371;29;20390;-80
2023/12/10 07:56:12;;;;;;;7.78;3.80;;;;;;;;;;4841969;29;20401;-81
2023/12/10 07:58:42;;;;;;;8.73;4.47;;;;;;;;;;4842241;29;20050;-81
2023/12/10 08:01:12;;;;;;;10.20;4.57;;;;;;;;;;4841833;29;20046;-81
2023/12/10 08:03:42;;;;;;;12.25;6.25;;;;;;;;;;4839807;29;20054;-81
2023/12/10 08:06:12;;;;;;;9.13;4.53;;;;;;;;;;4841342;29;20504;-82
2023/12/10 08:08:42;;;;;;;8.07;4.78;;;;;;;;;;4841516;29;20046;-81
2023/12/10 08:11:13;;;;;;;8.82;5.65;;;;;;;;;;4840552;29;20050;-81
2023/12/10 08:13:43;;;;;;;11.75;3.63;;;;;;;;;;4839981;29;20389;-81
2023/12/10 08:16:12;;;;;;;8.65;4.38;;;;;;;;;;4840127;29;20049;-80
2023/12/10 08:18:42;;;;;;;13.57;4.55;;;;;;;;;;4844739;29;20054;-82
2023/12/10 08:21:14;;;;;;;6.78;3.70;;;;;;;;;;4845294;29;20417;-81
2023/12/10 08:23:45;;;;;;;11.35;4.43;;;;;;;;;;4845166;29;20046;-82
2023/12/10 08:26:15;;;;;;;7.75;3.75;;;;;;;;;;4845125;29;20119;-80
2023/12/10 08:28:45;;;;;;;7.97;3.60;;;;;;;;;;4843756;29;20061;-80
2023/12/10 08:31:15;;;;;;;7.80;4.47;;;;;;;;;;4845649;29;20060;-81
2023/12/10 08:33:47;;;;;;;10.25;4.78;;;;;;;;;;4844937;29;20050;-79
2023/12/10 08:36:17;;;;;;;7.47;4.57;;;;;;;;;;4844908;29;20061;-79
2023/12/10 08:38:48;;;;;;;8.23;4.40;;;;;;;;;;4842904;29;20057;-79
2023/12/10 08:41:17;;;;;;;8.82;4.53;;;;;;;;;;4844187;29;20053;-81
2023/12/10 08:43:47;;;;;;;9.30;4.70;;;;;;;;;;4844643;29;20053;-83
2023/12/10 08:46:17;;;;;;;8.35;4.18;;;;;;;;;;4844333;29;20053;-80
2023/12/10 08:48:47;;;;;;;8.95;4.32;;;;;;;;;;4842670;29;20049;-81
2023/12/10 08:51:17;;;;;;;6.47;3.60;;;;;;;;;;4841800;29;20042;-80
2023/12/10 08:53:47;;;;;;;10.05;4.30;;;;;;;;;;4843051;29;20057;-80
2023/12/10 08:56:17;;;;;;;9.18;4.65;;;;;;;;;;4844155;29;20058;-80
2023/12/10 08:58:50;;;;;;;6.72;4.32;;;;;;;;;;4843838;29;20049;-81
2023/12/10 09:01:20;;;;;;;8.20;4.35;;;;;;;;;;4844357;29;20498;-81
2023/12/10 09:03:53;;;;;;;7.03;3.85;;;;;;;;;;4844367;29;20042;-80
2023/12/10 09:06:23;;;;;;;8.18;3.83;;;;;;;;;;4843906;29;20053;-81
2023/12/10 09:08:53;;;;;;;8.23;3.97;;;;;;;;;;4843173;29;20058;-81
2023/12/10 09:11:23;;;;;;;6.90;3.60;;;;;;;;;;4843901;29;20054;-81
2023/12/10 09:13:54;;;;;;;8.27;3.70;;;;;;;;;;4844105;29;20486;-80
2023/12/10 09:16:24;;;;;;;10.15;4.75;;;;;;;;;;4843569;29;20050;-80
2023/12/10 09:18:54;;;;;;;7.10;3.72;;;;;;;;;;4843567;29;20057;-80
2023/12/10 09:21:24;;;;;;;7.30;2.95;;;;;;;;;;4843968;29;20057;-80
2023/12/10 09:23:54;;;;;;;5.68;3.30;;;;;;;;;;4843901;29;20042;-79
2023/12/10 09:26:25;;;;;;;5.65;3.35;;;;;;;;;;4843597;29;20050;-80
2023/12/10 09:28:55;;;;;;;11.20;3.83;;;;;;;;;;4842941;29;20493;-83
2023/12/10 09:31:24;;;;;;;7.93;3.90;;;;;;;;;;4843483;29;20497;-83
2023/12/10 09:33:54;;;;;;;7.22;3.83;;;;;;;;;;4843979;29;20050;-82
2023/12/10 09:36:25;;;;;;;8.13;4.18;;;;;;;;;;4843234;29;20517;-80
2023/12/10 09:38:56;;;;;;;8.52;3.85;;;;;;;;;;4845320;29;20503;-81
2023/12/10 09:41:26;;;;;;;7.47;3.58;;;;;;;;;;4843577;29;20496;-81
2023/12/10 09:43:56;;;;;;;8.23;3.65;;;;;;;;;;4841784;29;20069;-83
2023/12/10 09:46:29;;;;;;;9.48;3.45;;;;;;;;;;4858030;29;20064;-82
2023/12/10 09:49:00;;;;;;;7.00;3.90;;;;;;;;;;4861992;29;20060;-83
2023/12/10 09:51:31;;;;;;;;;;;;;;;;;;4862727;29;20414;-82
2023/12/10 09:54:01;;;;;;;9.20;3.50;;;;;;;;;;4861295;29;20294;-82
2023/12/10 09:56:31;;;;;;;8.63;4.03;;;;;;;;;;4842908;29;20050;-83
2023/12/10 09:59:01;;;;;;;9.88;4.70;;;;;;;;;;4842871;29;20066;-82
2023/12/10 10:01:33;;;;;;;8.52;4.00;;;;;;;;;;4843350;29;20398;-84
2023/12/10 10:04:04;;;;;;;8.68;3.60;;;;;;;;;;4843376;29;20394;-85
2023/12/10 10:06:34;;;;;;;7.80;4.50;;;;;;;;;;4841498;29;20057;-83
2023/12/10 10:09:07;;;;;;;5.82;3.80;;;;;;;;;;4841337;29;20555;-87
2023/12/10 10:11:46;;;;;;;7.68;3.88;;;;;;;;;;4842804;29;20053;-83
2023/12/10 10:14:20;;;;;;;9.18;4.25;;;;;;;;;;4842558;29;20050;-86
2023/12/10 10:16:50;;;;;;;11.68;4.38;;;;;;;;;;4842643;29;20050;-84
2023/12/10 10:19:20;;;;;;;9.30;4.57;;;;;;;;;;4841324;29;20060;-83
2023/12/10 10:21:50;;;;;;;7.93;3.45;;;;;;;;;;4842083;29;20067;-83
2023/12/10 10:24:20;;;;;;;5.65;2.60;;;;;;;;;;4839569;29;20087;-84
2023/12/10 10:26:54;;;;;;;7.00;3.22;;;;;;;;;;4842873;29;20057;-85
2023/12/10 10:29:25;;;;;;;8.13;3.47;;;;;;;;;;4841425;29;20061;-84
2023/12/10 10:31:58;;;;;;;9.43;4.45;;;;;;;;;;4842454;29;20510;-86
2023/12/10 10:34:28;;;;;;;7.63;4.05;;;;;;;;;;4841539;29;20053;-86
2023/12/10 10:36:59;;;;;;;8.65;3.85;;;;;;;;;;4841250;29;20057;-88
2023/12/10 10:39:30;;;;;;;8.10;3.72;;;;;;;;;;4839231;29;20057;-86
2023/12/10 10:42:04;;;;;;;7.28;3.38;;;;;;;;;;4840050;29;20046;-88
2023/12/10 10:44:36;;;;;;;4.55;2.13;;;;;;;;;;4840982;29;20061;-87
2023/12/10 10:47:07;;;;;;;6.30;2.90;;;;;;;;;;4841490;29;20034;-89
2023/12/10 10:49:47;;;;;;;7.95;2.40;;;;;;;;;;4841002;29;20050;-88
2023/12/10 10:52:37;;;;;;;5.25;2.95;;;;;;;;;;4841116;29;20066;-89
2023/12/10 10:55:10;;;;;;;6.15;3.25;;;;;;;;;;4841374;29;20054;-86
2023/12/10 10:57:40;;;;;;;4.35;2.50;;;;;;;;;;4842090;29;20054;-87
2023/12/10 11:00:21;;;;;;;3.78;1.90;;;;;;;;;;4841538;29;20058;-89
2023/12/10 11:02:56;;;;;;;2.92;1.67;;;;;;;;;;4841624;29;20054;-91
2023/12/10 11:05:35;;;;;;;6.20;1.70;;;;;;;;;;4841503;29;20462;-88
2023/12/10 11:08:06;;;;;;;5.97;2.83;;;;;;;;;;4840700;29;20061;-87
2023/12/10 11:10:44;;;;;;;7.38;3.35;;;;;;;;;;4840416;29;20058;-87
2023/12/10 11:13:34;;;;;;;6.97;3.42;;;;;;;;;;4842288;29;20045;-85
2023/12/10 11:16:06;;;;;;;;;;;;;;;;;;4840441;29;20053;-85
2023/12/10 11:18:59;;;;;;;5.13;2.28;;;;;;;;;;4842249;29;20225;-86
2023/12/10 11:21:29;;;;;;;4.50;2.20;;;;;;;;;;4841016;29;20057;-86
2023/12/10 11:24:01;;;;;;;4.20;2.13;;;;;;;;;;4840680;29;20069;-88
2023/12/10 11:26:30;;;;;;;3.88;1.80;;;;;;;;;;4840984;29;20062;-88
2023/12/10 11:29:04;;;;;;;5.07;1.42;;;;;;;;;;4841298;29;20054;-87
2023/12/10 11:31:35;;;;;;;6.25;1.92;;;;;;;;;;4841886;29;20050;-85
2023/12/10 11:34:05;;;;;;;3.90;2.25;;;;;;;;;;4840125;29;20057;-85
2023/12/10 11:36:36;;;;;;;4.40;1.60;;;;;;;;;;4842115;29;20076;-84
2023/12/10 11:39:14;;;;;;;2.45;1.38;;;;;;;;;;4840713;29;20058;-84
2023/12/10 11:41:46;;;;;;;3.55;1.27;;;;;;;;;;4840223;29;20129;-86
2023/12/10 11:44:30;;;;;;;2.47;0.70;;;;;;;;;;4810791;29;20050;-87
2023/12/10 11:47:05;;;;;;;1.80;0.88;;;;;;;;;;4809019;29;20055;-87
2023/12/10 11:49:35;;;;;;;2.83;0.88;;;;;;;;;;4822862;29;20509;-86
2023/12/10 11:52:07;;;;;;;2.97;1.30;;;;;;;;;;4825167;29;20058;-88
2023/12/10 11:54:38;;;;;;;5.10;2.25;;;;;;;;;;4825907;29;20055;-86
2023/12/10 11:57:08;;;;;;;3.28;1.60;;;;;;;;;;4826561;29;20069;-85
2023/12/10 11:59:38;;;;;;;3.85;1.30;;;;;;;;;;4826341;29;20054;-86
2023/12/10 12:02:09;;;;;;;5.00;1.67;;;;;;;;;;4826951;29;20481;-87
2023/12/10 12:04:40;;;;;;;5.80;1.80;;;;;;;;;;4825521;29;20506;-84
2023/12/10 12:07:24;;;;;;;2.90;1.40;;;;;;;;;;4825991;29;20434;-86
2023/12/10 12:09:55;;;;;;;3.75;1.70;;;;;;;;;;4825567;29;20050;-85
2023/12/10 12:12:27;;;;;;;5.68;1.95;;;;;;;;;;4826887;29;20050;-86
2023/12/10 12:14:58;;;;;;;3.17;1.98;;;;;;;;;;4825823;29;20055;-86
2023/12/10 12:17:30;;;;;;;3.22;1.92;;;;;;;;;;4826921;29;20046;-84
2023/12/10 12:20:25;;;;;;;2.78;1.50;;;;;;;;;;4825393;29;20054;-86
2023/12/10 12:22:56;;;;;;;5.47;2.95;;;;;;;;;;4824987;29;20061;-85
2023/12/10 12:25:27;;;;;;;2.65;1.30;;;;;;;;;;4826918;29;20058;-84
2023/12/10 12:27:58;;;;;;;4.65;2.72;;;;;;;;;;4826617;29;20479;-87
2023/12/10 12:30:28;;;;;;;4.32;2.30;;;;;;;;;;4827322;29;20062;-85
2023/12/10 12:32:58;;;;;;;3.85;2.38;;;;;;;;;;4827037;29;20054;-84
2023/12/10 12:35:30;;;;;;;2.45;1.00;;;;;;;;;;4826599;29;20425;-85
2023/12/10 12:38:00;;;;;;;3.00;1.60;;;;;;;;;;4825090;29;20070;-84
2023/12/10 12:40:30;;;;;;;2.78;1.85;;;;;;;;;;4809910;29;20149;-84
2023/12/10 12:43:00;;;;;;;3.80;1.30;;;;;;;;;;4835045;29;20057;-87
2023/12/10 12:45:30;;;;;;;3.42;1.25;;;;;;;;;;4843185;29;20057;-84
2023/12/10 12:48:00;;;;;;;2.63;1.45;;;;;;;;;;4843048;29;20069;-83
2023/12/10 12:50:32;;;;;;;1.65;0.80;;;;;;;;;;4826236;29;20051;-85
2023/12/10 12:53:02;;;;;;;1.80;1.05;;;;;;;;;;4824438;29;20054;-83
2023/12/10 12:55:33;;;;;;;1.38;0.60;;;;;;;;;;4826807;29;20442;-82
2023/12/10 12:58:03;;;;;;;1.70;1.00;;;;;;;;;;4826443;29;20051;-82
2023/12/10 13:00:34;;;;;;;5.65;1.02;;;;;;;;;;4826243;29;20054;-83
2023/12/10 13:03:05;;;;;;;1.80;1.00;;;;;;;;;;4822800;29;20053;-83
2023/12/10 13:05:35;;;;;;;2.10;0.90;;;;;;;;;;4821112;29;20053;-83
2023/12/10 13:08:06;;;;;;;1.42;0.88;;;;;;;;;;4826023;29;20046;-83
2023/12/10 13:10:37;;;;;;;2.97;1.73;;;;;;;;;;4824201;29;20058;-82
2023/12/10 13:13:08;;;;;;;4.15;2.30;;;;;;;;;;4824651;29;20046;-84
2023/12/10 13:15:38;;;;;;;4.25;2.65;;;;;;;;;;4824447;29;20038;-83
2023/12/10 13:18:11;;;;;;;2.88;1.73;;;;;;;;;;4824808;29;20069;-84
2023/12/10 13:20:44;;;;;;;2.75;1.38;;;;;;;;;;4824575;29;20055;-85
2023/12/10 13:23:14;;;;;;;1.63;0.70;;;;;;;;;;4824163;29;20406;-83
2023/12/10 13:25:44;;;;;;;1.48;1.02;;;;;;;;;;4824369;29;20074;-83
2023/12/10 13:28:14;;;;;;;3.22;1.10;;;;;;;;;;4825726;29;20054;-83
2023/12/10 13:30:44;;;;;;;2.55;1.20;;;;;;;;;;4824374;29;20519;-85
2023/12/10 13:33:14;;;;;;;3.03;1.40;;;;;;;;;;4825909;29;20061;-84
2023/12/10 13:35:44;;;;;;;1.70;0.90;;;;;;;;;;4825428;29;20042;-83
2023/12/10 13:38:14;;;;;;;5.95;1.38;;;;;;;;;;4825521;29;20047;-84
2023/12/10 13:40:44;;;;;;;2.33;1.25;;;;;;;;;;4825714;29;20067;-83
2023/12/10 13:43:16;;;;;;;3.85;1.70;;;;;;;;;;4825552;29;20050;-82
2023/12/10 13:45:46;;;;;;;3.10;1.52;;;;;;;;;;4824808;29;20061;-82
2023/12/10 13:48:16;;;;;;;6.13;1.17;;;;;;;;;;4825856;29;20508;-83
2023/12/10 13:50:47;;;;;;;2.92;1.40;;;;;;;;;;4825590;29;20482;-86
2023/12/10 13:53:17;;;;;;;3.00;1.60;;;;;;;;;;4825844;29;20050;-83
2023/12/10 13:55:48;;;;;;;2.72;1.52;;;;;;;;;;4826011;29;20050;-86
2023/12/10 13:58:18;;;;;;;3.67;1.27;;;;;;;;;;4824182;29;20061;-84
2023/12/10 14:00:48;;;;;;;3.20;1.40;;;;;;;;;;4824238;29;20061;-84
2023/12/10 14:03:19;;;;;;;2.95;1.30;;;;;;;;;;4825606;29;20051;-84
2023/12/10 14:05:50;;;;;;;5.25;1.52;;;;;;;;;;4825229;29;20062;-83
2023/12/10 14:08:20;;;;;;;4.03;1.92;;;;;;;;;;4824791;29;20061;-86
2023/12/10 14:10:53;;;;;;;4.65;1.88;;;;;;;;;;4825579;29;20050;-86
2023/12/10 14:13:23;;;;;;;3.35;1.60;;;;;;;;;;4823187;29;20050;-81
2023/12/10 14:15:54;;;;;;;3.13;1.30;;;;;;;;;;4825026;29;20051;-83
2023/12/10 14:18:25;;;;;;;2.45;1.25;;;;;;;;;;4825080;29;20517;-86
2023/12/10 14:20:55;;;;;;;1.65;1.02;;;;;;;;;;4825031;29;20058;-83
2023/12/10 14:23:25;;;;;;;2.78;1.67;;;;;;;;;;4825360;29;20065;-83
2023/12/10 14:25:55;;;;;;;2.28;1.30;;;;;;;;;;4825065;29;20043;-83
2023/12/10 14:28:25;;;;;;;2.67;1.17;;;;;;;;;;4824074;29;20516;-83
2023/12/10 14:30:55;;;;;;;2.28;1.27;;;;;;;;;;4825385;29;20486;-83
2023/12/10 14:33:25;;;;;;;1.98;1.10;;;;;;;;;;4824849;29;20050;-83
2023/12/10 14:35:55;;;;;;;1.80;1.15;;;;;;;;;;4825160;29;20050;-85
2023/12/10 14:38:25;;;;;;;2.25;1.30;;;;;;;;;;4824865;29;20053;-84
2023/12/10 14:40:55;;;;;;;1.30;0.77;;;;;;;;;;4822895;29;20391;-83
2023/12/10 14:43:25;;;;;;;1.85;1.40;;;;;;;;;;4824713;29;20058;-86
2023/12/10 14:45:55;;;;;;;2.92;1.15;;;;;;;;;;4808453;29;20059;-83
2023/12/10 14:48:25;;;;;;;1.58;1.10;;;;;;;;;;4825303;29;20057;-83
2023/12/10 14:50:55;;;;;;;2.42;1.25;;;;;;;;;;4824667;29;20490;-83
2023/12/10 14:53:25;;;;;;;3.40;1.20;;;;;;;;;;4824601;29;20050;-85
2023/12/10 14:55:56;;;;;;;2.50;1.15;;;;;;;;;;4824924;29;20057;-83
2023/12/10 14:58:26;;;;;;;4.97;0.98;;;;;;;;;;4823289;29;20359;-91
2023/12/10 15:00:56;;;;;;;1.70;0.90;;;;;;;;;;4824534;29;20050;-90
2023/12/10 15:03:26;;;;;;;1.52;1.15;;;;;;;;;;4824307;29;20061;-84